sensor_id;sensor_type;location;lat;lon;timestamp;temperature;humidity
55331;DHT22;58851;42.984;20.336;2022-07-29T00:00:44;486.40;2380.80
55331;DHT22;58851;42.984;20.336;2022-07-29T00:03:11;486.40;2380.80
55331;DHT22;58851;42.984;20.336;2022-07-29T00:05:39;486.40;2380.80
55331;DHT22;58851;42.984;20.336;2022-07-29T00:08:05;461.70;2380.80
55331;DHT22;58851;42.984;20.336;2022-07-29T00:10:31;486.40;2380.80
55331;DHT22;58851;42.984;20.336;2022-07-29T00:12:57;486.40;2380.80
55331;DHT22;58851;42.984;20.336;2022-07-29T00:15:23;486.40;2380.80
55331;DHT22;58851;42.984;20.336;2022-07-29T00:17:48;486.40;2380.80
55331;DHT22;58851;42.984;20.336;2022-07-29T00:20:14;486.40;2380.80
55331;DHT22;58851;42.984;20.336;2022-07-29T00:22:40;486.40;2380.80
55331;DHT22;58851;42.984;20.336;2022-07-29T00:25:07;486.40;2380.80
55331;DHT22;58851;42.984;20.336;2022-07-29T00:27:34;486.50;2380.80
55331;DHT22;58851;42.984;20.336;2022-07-29T00:30:01;486.50;2380.80
55331;DHT22;58851;42.984;20.336;2022-07-29T00:32:27;486.50;2380.80
55331;DHT22;58851;42.984;20.336;2022-07-29T00:34:52;486.50;2380.80
55331;DHT22;58851;42.984;20.336;2022-07-29T00:37:36;486.40;2380.80
55331;DHT22;58851;42.984;20.336;2022-07-29T00:40:03;486.40;2380.80
55331;DHT22;58851;42.984;20.336;2022-07-29T00:42:29;486.40;2380.80
55331;DHT22;58851;42.984;20.336;2022-07-29T00:44:54;486.40;2380.80
55331;DHT22;58851;42.984;20.336;2022-07-29T00:47:20;486.40;2380.80
55331;DHT22;58851;42.984;20.336;2022-07-29T00:49:46;461.70;2380.80
55331;DHT22;58851;42.984;20.336;2022-07-29T00:52:12;461.70;2380.80
55331;DHT22;58851;42.984;20.336;2022-07-29T00:54:39;461.70;2380.80
55331;DHT22;58851;42.984;20.336;2022-07-29T00:57:09;461.60;2380.80
55331;DHT22;58851;42.984;20.336;2022-07-29T00:59:34;461.60;2380.80
55331;DHT22;58851;42.984;20.336;2022-07-29T01:02:01;461.60;2380.80
55331;DHT22;58851;42.984;20.336;2022-07-29T01:04:27;461.60;2380.80
55331;DHT22;58851;42.984;20.336;2022-07-29T01:06:55;461.60;2380.80
55331;DHT22;58851;42.984;20.336;2022-07-29T01:09:21;461.70;2380.80
55331;DHT22;58851;42.984;20.336;2022-07-29T01:11:48;461.70;2380.80
55331;DHT22;58851;42.984;20.336;2022-07-29T01:14:15;461.70;2380.80
55331;DHT22;58851;42.984;20.336;2022-07-29T01:17:05;461.70;2380.80
55331;DHT22;58851;42.984;20.336;2022-07-29T01:28:13;461.60;2380.80
55331;DHT22;58851;42.984;20.336;2022-07-29T01:30:35;461.60;2380.80
55331;DHT22;58851;42.984;20.336;2022-07-29T01:33:07;461.50;2380.80
55331;DHT22;58851;42.984;20.336;2022-07-29T01:35:38;461.40;2380.80
55331;DHT22;58851;42.984;20.336;2022-07-29T01:38:16;461.30;2380.80
55331;DHT22;58851;42.984;20.336;2022-07-29T01:40:47;461.30;2380.80
55331;DHT22;58851;42.984;20.336;2022-07-29T01:43:18;461.30;2380.80
55331;DHT22;58851;42.984;20.336;2022-07-29T01:45:49;461.40;2380.80
55331;DHT22;58851;42.984;20.336;2022-07-29T01:48:22;461.30;2380.80
55331;DHT22;58851;42.984;20.336;2022-07-29T01:50:52;461.30;2380.80
55331;DHT22;58851;42.984;20.336;2022-07-29T01:53:37;461.30;2380.80
55331;DHT22;58851;42.984;20.336;2022-07-29T01:56:05;461.40;2380.80
55331;DHT22;58851;42.984;20.336;2022-07-29T01:58:33;461.50;2380.80
55331;DHT22;58851;42.984;20.336;2022-07-29T02:01:01;461.50;2380.80
55331;DHT22;58851;42.984;20.336;2022-07-29T02:03:28;461.50;2380.80
55331;DHT22;58851;42.984;20.336;2022-07-29T02:05:56;461.50;2380.80
55331;DHT22;58851;42.984;20.336;2022-07-29T02:08:23;461.40;2380.80
55331;DHT22;58851;42.984;20.336;2022-07-29T02:10:51;461.30;2380.80
55331;DHT22;58851;42.984;20.336;2022-07-29T02:13:18;461.30;2380.80
55331;DHT22;58851;42.984;20.336;2022-07-29T02:15:46;461.20;2380.80
55331;DHT22;58851;42.984;20.336;2022-07-29T02:18:18;461.30;2380.80
55331;DHT22;58851;42.984;20.336;2022-07-29T02:20:47;461.10;2380.80
55331;DHT22;58851;42.984;20.336;2022-07-29T02:23:17;461.10;2380.80
55331;DHT22;58851;42.984;20.336;2022-07-29T02:25:45;461.00;2380.80
55331;DHT22;58851;42.984;20.336;2022-07-29T02:28:13;461.00;2380.80
55331;DHT22;58851;42.984;20.336;2022-07-29T02:30:41;461.10;2380.80
55331;DHT22;58851;42.984;20.336;2022-07-29T02:33:10;461.10;2380.80
55331;DHT22;58851;42.984;20.336;2022-07-29T02:35:39;461.20;2380.80
55331;DHT22;58851;42.984;20.336;2022-07-29T02:38:07;461.20;2380.80
55331;DHT22;58851;42.984;20.336;2022-07-29T02:40:53;461.20;2380.80
55331;DHT22;58851;42.984;20.336;2022-07-29T02:43:22;461.20;2380.80
55331;DHT22;58851;42.984;20.336;2022-07-29T02:45:51;461.20;2380.80
55331;DHT22;58851;42.984;20.336;2022-07-29T02:48:22;461.10;2380.80
55331;DHT22;58851;42.984;20.336;2022-07-29T02:50:55;461.20;2380.80
55331;DHT22;58851;42.984;20.336;2022-07-29T02:53:23;461.20;2380.80
55331;DHT22;58851;42.984;20.336;2022-07-29T02:55:59;461.20;2380.80
55331;DHT22;58851;42.984;20.336;2022-07-29T02:58:31;461.10;2380.80
55331;DHT22;58851;42.984;20.336;2022-07-29T03:01:21;461.10;2380.80
55331;DHT22;58851;42.984;20.336;2022-07-29T03:03:49;461.10;2380.80
55331;DHT22;58851;42.984;20.336;2022-07-29T03:06:17;461.10;2380.80
55331;DHT22;58851;42.984;20.336;2022-07-29T03:08:44;461.10;2380.80
55331;DHT22;58851;42.984;20.336;2022-07-29T03:11:11;461.00;2380.80
55331;DHT22;58851;42.984;20.336;2022-07-29T03:13:38;460.90;2380.80
55331;DHT22;58851;42.984;20.336;2022-07-29T03:16:05;460.90;2380.80
55331;DHT22;58851;42.984;20.336;2022-07-29T03:18:31;460.90;2380.80
55331;DHT22;58851;42.984;20.336;2022-07-29T03:20:58;460.90;2380.80
55331;DHT22;58851;42.984;20.336;2022-07-29T03:23:24;460.90;2380.80
55331;DHT22;58851;42.984;20.336;2022-07-29T03:25:53;460.80;2380.80
55331;DHT22;58851;42.984;20.336;2022-07-29T03:28:19;460.80;2380.80
55331;DHT22;58851;42.984;20.336;2022-07-29T03:30:46;460.80;2380.80
55331;DHT22;58851;42.984;20.336;2022-07-29T03:33:12;460.80;2380.80
55331;DHT22;58851;42.984;20.336;2022-07-29T03:35:37;436.10;2355.20
55331;DHT22;58851;42.984;20.336;2022-07-29T03:38:03;436.10;2355.20
55331;DHT22;58851;42.984;20.336;2022-07-29T03:40:40;436.00;2355.20
55331;DHT22;58851;42.984;20.336;2022-07-29T03:43:09;436.00;2355.20
55331;DHT22;58851;42.984;20.336;2022-07-29T03:45:35;436.10;2355.20
55331;DHT22;58851;42.984;20.336;2022-07-29T03:48:07;460.80;2380.80
55331;DHT22;58851;42.984;20.336;2022-07-29T03:50:34;460.90;2380.80
55331;DHT22;58851;42.984;20.336;2022-07-29T03:53:01;460.90;2380.80
55331;DHT22;58851;42.984;20.336;2022-07-29T03:55:29;460.90;2380.80
55331;DHT22;58851;42.984;20.336;2022-07-29T03:57:58;460.90;2380.80
55331;DHT22;58851;42.984;20.336;2022-07-29T04:00:26;460.80;2380.80
55331;DHT22;58851;42.984;20.336;2022-07-29T04:02:52;460.90;2380.80
55331;DHT22;58851;42.984;20.336;2022-07-29T04:05:18;436.10;2355.20
55331;DHT22;58851;42.984;20.336;2022-07-29T04:07:46;460.80;2380.80
55331;DHT22;58851;42.984;20.336;2022-07-29T04:10:12;460.90;2380.80
55331;DHT22;58851;42.984;20.336;2022-07-29T04:12:38;460.90;2380.80
55331;DHT22;58851;42.984;20.336;2022-07-29T04:15:04;460.80;2380.80
55331;DHT22;58851;42.984;20.336;2022-07-29T04:17:30;460.80;2380.80
55331;DHT22;58851;42.984;20.336;2022-07-29T04:19:56;460.80;2380.80
55331;DHT22;58851;42.984;20.336;2022-07-29T04:22:21;436.10;2355.20
55331;DHT22;58851;42.984;20.336;2022-07-29T04:24:47;436.00;2355.20
55331;DHT22;58851;42.984;20.336;2022-07-29T04:27:13;436.10;2355.20
55331;DHT22;58851;42.984;20.336;2022-07-29T04:29:39;436.10;2355.20
55331;DHT22;58851;42.984;20.336;2022-07-29T04:32:05;436.10;2355.20
55331;DHT22;58851;42.984;20.336;2022-07-29T04:34:31;436.00;2355.20
55331;DHT22;58851;42.984;20.336;2022-07-29T04:36:56;436.00;2355.20
55331;DHT22;58851;42.984;20.336;2022-07-29T04:39:23;436.10;2355.20
55331;DHT22;58851;42.984;20.336;2022-07-29T04:41:49;436.10;2355.20
55331;DHT22;58851;42.984;20.336;2022-07-29T04:44:15;460.80;2380.80
55331;DHT22;58851;42.984;20.336;2022-07-29T04:46:41;460.90;2380.80
55331;DHT22;58851;42.984;20.336;2022-07-29T04:49:07;460.90;2380.80
55331;DHT22;58851;42.984;20.336;2022-07-29T04:51:33;460.90;2380.80
55331;DHT22;58851;42.984;20.336;2022-07-29T04:53:59;460.80;2380.80
55331;DHT22;58851;42.984;20.336;2022-07-29T04:56:25;460.80;2380.80
55331;DHT22;58851;42.984;20.336;2022-07-29T04:58:51;460.90;2380.80
55331;DHT22;58851;42.984;20.336;2022-07-29T05:01:17;461.00;2380.80
55331;DHT22;58851;42.984;20.336;2022-07-29T05:03:43;461.00;2380.80
55331;DHT22;58851;42.984;20.336;2022-07-29T05:06:09;460.90;2380.80
55331;DHT22;58851;42.984;20.336;2022-07-29T05:08:35;460.80;2380.80
55331;DHT22;58851;42.984;20.336;2022-07-29T05:11:00;461.00;2380.80
55331;DHT22;58851;42.984;20.336;2022-07-29T05:13:26;461.00;2380.80
55331;DHT22;58851;42.984;20.336;2022-07-29T05:15:52;461.00;2380.80
55331;DHT22;58851;42.984;20.336;2022-07-29T05:18:18;461.00;2380.80
55331;DHT22;58851;42.984;20.336;2022-07-29T05:20:44;460.90;2380.80
55331;DHT22;58851;42.984;20.336;2022-07-29T05:23:09;461.10;2380.80
55331;DHT22;58851;42.984;20.336;2022-07-29T05:25:38;461.10;2380.80
55331;DHT22;58851;42.984;20.336;2022-07-29T05:28:04;461.10;2380.80
55331;DHT22;58851;42.984;20.336;2022-07-29T05:30:29;461.20;2380.80
55331;DHT22;58851;42.984;20.336;2022-07-29T05:32:55;461.10;2380.80
55331;DHT22;58851;42.984;20.336;2022-07-29T05:35:21;461.20;2380.80
55331;DHT22;58851;42.984;20.336;2022-07-29T05:37:47;461.30;2380.80
55331;DHT22;58851;42.984;20.336;2022-07-29T05:40:13;461.20;2380.80
55331;DHT22;58851;42.984;20.336;2022-07-29T05:42:38;461.30;2380.80
55331;DHT22;58851;42.984;20.336;2022-07-29T05:45:05;461.30;2380.80
55331;DHT22;58851;42.984;20.336;2022-07-29T05:47:31;461.40;2380.80
55331;DHT22;58851;42.984;20.336;2022-07-29T05:49:56;461.50;2380.80
55331;DHT22;58851;42.984;20.336;2022-07-29T05:52:22;461.50;2380.80
55331;DHT22;58851;42.984;20.336;2022-07-29T05:54:49;461.50;2380.80
55331;DHT22;58851;42.984;20.336;2022-07-29T05:57:22;461.50;2380.80
55331;DHT22;58851;42.984;20.336;2022-07-29T05:59:49;461.70;2380.80
55331;DHT22;58851;42.984;20.336;2022-07-29T06:02:15;486.40;2380.80
55331;DHT22;58851;42.984;20.336;2022-07-29T06:04:42;486.40;2380.80
55331;DHT22;58851;42.984;20.336;2022-07-29T06:07:08;461.70;2380.80
55331;DHT22;58851;42.984;20.336;2022-07-29T06:09:34;461.70;2380.80
55331;DHT22;58851;42.984;20.336;2022-07-29T06:12:01;486.40;2380.80
55331;DHT22;58851;42.984;20.336;2022-07-29T06:14:27;486.40;2380.80
55331;DHT22;58851;42.984;20.336;2022-07-29T06:16:54;486.60;2380.80
55331;DHT22;58851;42.984;20.336;2022-07-29T06:19:19;486.60;2380.80
55331;DHT22;58851;42.984;20.336;2022-07-29T06:21:46;486.60;2380.80
55331;DHT22;58851;42.984;20.336;2022-07-29T06:24:13;486.60;2380.80
55331;DHT22;58851;42.984;20.336;2022-07-29T06:26:39;486.70;2380.80
55331;DHT22;58851;42.984;20.336;2022-07-29T06:29:06;486.90;2380.80
55331;DHT22;58851;42.984;20.336;2022-07-29T06:31:32;487.00;2380.80
55331;DHT22;58851;42.984;20.336;2022-07-29T06:33:58;486.90;2380.80
55331;DHT22;58851;42.984;20.336;2022-07-29T06:36:24;486.70;2380.80
55331;DHT22;58851;42.984;20.336;2022-07-29T06:38:50;486.80;2380.80
55331;DHT22;58851;42.984;20.336;2022-07-29T06:41:16;487.00;2380.80
55331;DHT22;58851;42.984;20.336;2022-07-29T06:43:43;487.00;2380.80
55331;DHT22;58851;42.984;20.336;2022-07-29T06:46:14;487.10;2380.80
55331;DHT22;58851;42.984;20.336;2022-07-29T06:48:41;512.00;2380.80
55331;DHT22;58851;42.984;20.336;2022-07-29T06:51:08;487.30;2380.80
55331;DHT22;58851;42.984;20.336;2022-07-29T06:53:34;487.20;2380.80
55331;DHT22;58851;42.984;20.336;2022-07-29T06:56:02;487.20;2380.80
55331;DHT22;58851;42.984;20.336;2022-07-29T06:58:29;512.20;2380.80
55331;DHT22;58851;42.984;20.336;2022-07-29T07:01:01;512.20;2380.80
55331;DHT22;58851;42.984;20.336;2022-07-29T07:03:27;512.10;2380.80
55331;DHT22;58851;42.984;20.336;2022-07-29T07:05:54;487.30;2380.80
55331;DHT22;58851;42.984;20.336;2022-07-29T07:08:20;487.00;2380.80
55331;DHT22;58851;42.984;20.336;2022-07-29T07:10:47;487.20;2380.80
55331;DHT22;58851;42.984;20.336;2022-07-29T07:13:13;512.00;2380.80
55331;DHT22;58851;42.984;20.336;2022-07-29T07:15:40;512.20;2380.80
55331;DHT22;58851;42.984;20.336;2022-07-29T07:18:06;512.10;2380.80
55331;DHT22;58851;42.984;20.336;2022-07-29T07:20:33;487.30;2380.80
55331;DHT22;58851;42.984;20.336;2022-07-29T07:22:59;487.30;2380.80
55331;DHT22;58851;42.984;20.336;2022-07-29T07:25:25;487.30;2380.80
55331;DHT22;58851;42.984;20.336;2022-07-29T07:27:51;512.00;2380.80
55331;DHT22;58851;42.984;20.336;2022-07-29T07:30:17;512.20;2380.80
55331;DHT22;58851;42.984;20.336;2022-07-29T07:32:43;512.40;2380.80
55331;DHT22;58851;42.984;20.336;2022-07-29T07:35:10;512.50;2380.80
55331;DHT22;58851;42.984;20.336;2022-07-29T07:37:37;512.60;2380.80
55331;DHT22;58851;42.984;20.336;2022-07-29T07:40:04;512.70;2380.80
55331;DHT22;58851;42.984;20.336;2022-07-29T07:42:30;512.70;2380.80
55331;DHT22;58851;42.984;20.336;2022-07-29T07:44:56;512.70;2380.80
55331;DHT22;58851;42.984;20.336;2022-07-29T07:47:21;512.90;2380.80
55331;DHT22;58851;42.984;20.336;2022-07-29T07:49:52;512.90;2380.80
55331;DHT22;58851;42.984;20.336;2022-07-29T07:52:21;512.80;2380.80
55331;DHT22;58851;42.984;20.336;2022-07-29T07:54:47;512.90;2380.80
55331;DHT22;58851;42.984;20.336;2022-07-29T07:57:15;537.60;2406.40
55331;DHT22;58851;42.984;20.336;2022-07-29T07:59:41;537.70;2406.40
55331;DHT22;58851;42.984;20.336;2022-07-29T08:02:08;537.90;2406.40
55331;DHT22;58851;42.984;20.336;2022-07-29T08:04:34;537.80;2406.40
55331;DHT22;58851;42.984;20.336;2022-07-29T08:07:01;537.90;2406.40
55331;DHT22;58851;42.984;20.336;2022-07-29T08:09:29;538.00;2406.40
55331;DHT22;58851;42.984;20.336;2022-07-29T08:11:55;538.00;2406.40
55331;DHT22;58851;42.984;20.336;2022-07-29T08:14:23;538.10;2406.40
55331;DHT22;58851;42.984;20.336;2022-07-29T08:16:49;538.20;2406.40
55331;DHT22;58851;42.984;20.336;2022-07-29T08:19:16;538.10;2406.40
55331;DHT22;58851;42.984;20.336;2022-07-29T08:21:42;538.20;2406.40
55331;DHT22;58851;42.984;20.336;2022-07-29T08:24:08;538.50;2406.40
55331;DHT22;58851;42.984;20.336;2022-07-29T08:26:57;538.50;2406.40
55331;DHT22;58851;42.984;20.336;2022-07-29T08:29:24;563.20;2432.00
55331;DHT22;58851;42.984;20.336;2022-07-29T08:31:50;563.30;2432.00
55331;DHT22;58851;42.984;20.336;2022-07-29T08:34:16;563.40;2432.00
55331;DHT22;58851;42.984;20.336;2022-07-29T08:36:41;563.50;2432.00
55331;DHT22;58851;42.984;20.336;2022-07-29T08:39:07;563.60;2432.00
55331;DHT22;58851;42.984;20.336;2022-07-29T08:41:33;563.70;2432.00
55331;DHT22;58851;42.984;20.336;2022-07-29T08:43:59;563.90;2432.00
55331;DHT22;58851;42.984;20.336;2022-07-29T08:46:25;564.10;2432.00
55331;DHT22;58851;42.984;20.336;2022-07-29T08:48:51;588.90;2432.00
55331;DHT22;58851;42.984;20.336;2022-07-29T08:51:19;589.10;2432.00
55331;DHT22;58851;42.984;20.336;2022-07-29T08:53:48;589.20;2355.20
55331;DHT22;58851;42.984;20.336;2022-07-29T08:56:18;589.40;2380.80
55331;DHT22;58851;42.984;20.336;2022-07-29T08:58:48;589.50;2355.20
55331;DHT22;58851;42.984;20.336;2022-07-29T09:01:17;589.70;2329.60
55331;DHT22;58851;42.984;20.336;2022-07-29T09:03:46;589.70;2201.60
55331;DHT22;58851;42.984;20.336;2022-07-29T09:06:17;589.50;2227.20
55331;DHT22;58851;42.984;20.336;2022-07-29T09:08:44;589.50;2201.60
55331;DHT22;58851;42.984;20.336;2022-07-29T09:11:11;589.70;2176.00
55331;DHT22;58851;42.984;20.336;2022-07-29T09:13:37;614.40;2150.40
55331;DHT22;58851;42.984;20.336;2022-07-29T09:16:04;614.40;2176.00
55331;DHT22;58851;42.984;20.336;2022-07-29T09:21:02;614.50;2124.80
55331;DHT22;58851;42.984;20.336;2022-07-29T09:24:04;614.70;2150.40
55331;DHT22;58851;42.984;20.336;2022-07-29T09:26:31;615.00;2099.20
55331;DHT22;58851;42.984;20.336;2022-07-29T09:28:58;615.10;2099.20
55331;DHT22;58851;42.984;20.336;2022-07-29T09:31:36;640.00;2099.20
55331;DHT22;58851;42.984;20.336;2022-07-29T09:34:04;640.20;2201.60
55331;DHT22;58851;42.984;20.336;2022-07-29T09:36:30;640.40;2099.20
55331;DHT22;58851;42.984;20.336;2022-07-29T09:39:02;640.60;2048.00
55331;DHT22;58851;42.984;20.336;2022-07-29T09:41:29;640.70;1945.60
55331;DHT22;58851;42.984;20.336;2022-07-29T09:43:59;640.70;1920.00
55331;DHT22;58851;42.984;20.336;2022-07-29T09:46:25;640.90;1920.00
55331;DHT22;58851;42.984;20.336;2022-07-29T09:49:10;665.80;1996.80
55331;DHT22;58851;42.984;20.336;2022-07-29T09:51:37;665.90;1894.40
55331;DHT22;58851;42.984;20.336;2022-07-29T09:54:22;666.10;1894.40
55331;DHT22;58851;42.984;20.336;2022-07-29T09:56:49;666.20;1843.20
55331;DHT22;58851;42.984;20.336;2022-07-29T09:59:15;666.20;1817.60
55331;DHT22;58851;42.984;20.336;2022-07-29T10:01:41;666.30;1894.40
55331;DHT22;58851;42.984;20.336;2022-07-29T10:04:07;666.50;1792.00
55331;DHT22;58851;42.984;20.336;2022-07-29T10:06:34;691.20;1792.00
55331;DHT22;58851;42.984;20.336;2022-07-29T10:09:10;691.20;1689.60
55331;DHT22;58851;42.984;20.336;2022-07-29T10:11:36;691.40;1715.20
55331;DHT22;58851;42.984;20.336;2022-07-29T10:14:03;691.60;1740.80
55331;DHT22;58851;42.984;20.336;2022-07-29T10:16:30;691.60;1638.40
55331;DHT22;58851;42.984;20.336;2022-07-29T10:18:59;691.80;1715.20
55331;DHT22;58851;42.984;20.336;2022-07-29T10:21:27;692.00;1715.20
55331;DHT22;58851;42.984;20.336;2022-07-29T10:23:53;692.10;1740.80
55331;DHT22;58851;42.984;20.336;2022-07-29T10:26:20;716.80;1715.20
55331;DHT22;58851;42.984;20.336;2022-07-29T10:28:46;716.90;1638.40
55331;DHT22;58851;42.984;20.336;2022-07-29T10:31:43;716.90;1536.00
55331;DHT22;58851;42.984;20.336;2022-07-29T10:43:19;717.10;1510.40
55331;DHT22;58851;42.984;20.336;2022-07-29T10:45:48;717.30;1587.20
55331;DHT22;58851;42.984;20.336;2022-07-29T10:48:15;717.40;1561.60
55331;DHT22;58851;42.984;20.336;2022-07-29T10:50:59;717.50;1510.40
55331;DHT22;58851;42.984;20.336;2022-07-29T10:56:29;717.60;1536.00
55331;DHT22;58851;42.984;20.336;2022-07-29T11:01:47;742.60;1561.60
55331;DHT22;58851;42.984;20.336;2022-07-29T11:04:15;742.70;1536.00
55331;DHT22;58851;42.984;20.336;2022-07-29T11:09:26;743.00;1408.00
55331;DHT22;58851;42.984;20.336;2022-07-29T11:11:52;743.10;1408.00
55331;DHT22;58851;42.984;20.336;2022-07-29T11:17:15;743.30;1382.40
55331;DHT22;58851;42.984;20.336;2022-07-29T11:19:41;768.20;1408.00
55331;DHT22;58851;42.984;20.336;2022-07-29T11:22:09;768.40;1356.80
55331;DHT22;58851;42.984;20.336;2022-07-29T11:24:35;768.40;1305.60
55331;DHT22;58851;42.984;20.336;2022-07-29T11:27:18;768.60;1305.60
55331;DHT22;58851;42.984;20.336;2022-07-29T11:32:15;768.90;1331.20
55331;DHT22;58851;42.984;20.336;2022-07-29T11:34:43;793.60;1280.00
55331;DHT22;58851;42.984;20.336;2022-07-29T11:39:36;793.60;1203.20
55331;DHT22;58851;42.984;20.336;2022-07-29T11:44:57;793.60;1126.40
55331;DHT22;58851;42.984;20.336;2022-07-29T11:47:23;793.80;1100.80
55331;DHT22;58851;42.984;20.336;2022-07-29T11:49:50;794.10;1126.40
55331;DHT22;58851;42.984;20.336;2022-07-29T11:52:17;794.20;1100.80
55331;DHT22;58851;42.984;20.336;2022-07-29T11:54:43;819.20;1126.40
55331;DHT22;58851;42.984;20.336;2022-07-29T11:57:10;794.30;1024.00
55331;DHT22;58851;42.984;20.336;2022-07-29T11:59:43;819.20;998.40
55331;DHT22;58851;42.984;20.336;2022-07-29T12:02:11;819.20;998.40
55331;DHT22;58851;42.984;20.336;2022-07-29T12:04:53;819.40;1049.60
55331;DHT22;58851;42.984;20.336;2022-07-29T12:07:30;819.20;1075.20
55331;DHT22;58851;42.984;20.336;2022-07-29T12:09:56;794.40;1126.40
55331;DHT22;58851;42.984;20.336;2022-07-29T12:12:23;819.50;1203.20
55331;DHT22;58851;42.984;20.336;2022-07-29T12:14:49;819.40;1177.60
55331;DHT22;58851;42.984;20.336;2022-07-29T12:17:31;819.40;1177.60
55331;DHT22;58851;42.984;20.336;2022-07-29T12:19:59;819.30;1177.60
55331;DHT22;58851;42.984;20.336;2022-07-29T12:24:53;819.60;1177.60
55331;DHT22;58851;42.984;20.336;2022-07-29T12:27:18;819.90;1177.60
55331;DHT22;58851;42.984;20.336;2022-07-29T12:29:55;844.80;1203.20
55331;DHT22;58851;42.984;20.336;2022-07-29T12:32:20;845.00;1152.00
55331;DHT22;58851;42.984;20.336;2022-07-29T12:34:46;845.10;1152.00
55331;DHT22;58851;42.984;20.336;2022-07-29T12:37:12;845.50;1177.60
55331;DHT22;58851;42.984;20.336;2022-07-29T12:39:39;845.70;1049.60
55331;DHT22;58851;42.984;20.336;2022-07-29T12:42:12;870.40;1126.40
55331;DHT22;58851;42.984;20.336;2022-07-29T12:44:48;870.60;1100.80
55331;DHT22;58851;42.984;20.336;2022-07-29T12:47:15;870.70;1075.20
55331;DHT22;58851;42.984;20.336;2022-07-29T12:49:44;871.00;1100.80
55331;DHT22;58851;42.984;20.336;2022-07-29T12:52:39;870.90;1049.60
55331;DHT22;58851;42.984;20.336;2022-07-29T12:55:05;871.30;1049.60
55331;DHT22;58851;42.984;20.336;2022-07-29T12:57:31;896.20;1049.60
55331;DHT22;58851;42.984;20.336;2022-07-29T13:02:33;896.50;1024.00
55331;DHT22;58851;42.984;20.336;2022-07-29T13:05:01;896.90;947.20
55331;DHT22;58851;42.984;20.336;2022-07-29T13:07:28;921.70;972.80
55331;DHT22;58851;42.984;20.336;2022-07-29T13:10:21;921.90;972.80
55331;DHT22;58851;42.984;20.336;2022-07-29T13:13:04;922.00;947.20
55331;DHT22;58851;42.984;20.336;2022-07-29T13:15:31;922.20;921.60
55331;DHT22;58851;42.984;20.336;2022-07-29T13:17:57;922.40;972.80
55331;DHT22;58851;42.984;20.336;2022-07-29T13:20:25;922.20;921.60
55331;DHT22;58851;42.984;20.336;2022-07-29T13:22:53;922.00;896.00
55331;DHT22;58851;42.984;20.336;2022-07-29T13:25:32;947.50;921.60
55331;DHT22;58851;42.984;20.336;2022-07-29T13:27:59;948.10;870.40
55331;DHT22;58851;42.984;20.336;2022-07-29T13:30:24;973.20;921.60
55331;DHT22;58851;42.984;20.336;2022-07-29T13:32:52;973.40;921.60
55331;DHT22;58851;42.984;20.336;2022-07-29T13:35:19;998.40;921.60
55331;DHT22;58851;42.984;20.336;2022-07-29T13:37:45;998.70;896.00
55331;DHT22;58851;42.984;20.336;2022-07-29T13:40:11;1024.00;870.40
55331;DHT22;58851;42.984;20.336;2022-07-29T13:42:37;1024.10;844.80
55331;DHT22;58851;42.984;20.336;2022-07-29T13:45:04;1024.60;768.00
55331;DHT22;58851;42.984;20.336;2022-07-29T13:47:30;1024.60;793.60
55331;DHT22;58851;42.984;20.336;2022-07-29T13:49:56;1024.70;768.00
55331;DHT22;58851;42.984;20.336;2022-07-29T13:52:22;1049.80;768.00
55331;DHT22;58851;42.984;20.336;2022-07-29T13:54:48;1050.00;742.40
55331;DHT22;58851;42.984;20.336;2022-07-29T13:57:15;1050.50;742.40
55331;DHT22;58851;42.984;20.336;2022-07-29T13:59:42;1075.40;768.00
55331;DHT22;58851;42.984;20.336;2022-07-29T14:02:09;1075.80;716.80
55331;DHT22;58851;42.984;20.336;2022-07-29T14:04:36;1075.90;716.80
55331;DHT22;58851;42.984;20.336;2022-07-29T14:07:02;1075.80;691.20
55331;DHT22;58851;42.984;20.336;2022-07-29T14:09:28;1024.70;742.40
55331;DHT22;58851;42.984;20.336;2022-07-29T14:11:54;998.50;819.20
55331;DHT22;58851;42.984;20.336;2022-07-29T14:14:20;1024.30;768.00
55331;DHT22;58851;42.984;20.336;2022-07-29T14:16:46;1024.90;716.80
55331;DHT22;58851;42.984;20.336;2022-07-29T14:19:12;1075.30;716.80
55331;DHT22;58851;42.984;20.336;2022-07-29T14:21:39;1050.00;716.80
55331;DHT22;58851;42.984;20.336;2022-07-29T14:24:05;1050.00;742.40
55331;DHT22;58851;42.984;20.336;2022-07-29T14:26:32;1049.80;716.80
55331;DHT22;58851;42.984;20.336;2022-07-29T14:28:57;1049.80;665.60
55331;DHT22;58851;42.984;20.336;2022-07-29T14:31:23;1075.70;691.20
55331;DHT22;58851;42.984;20.336;2022-07-29T14:33:49;1101.20;691.20
55331;DHT22;58851;42.984;20.336;2022-07-29T14:36:15;1101.70;691.20
55331;DHT22;58851;42.984;20.336;2022-07-29T14:38:40;1126.40;691.20
55331;DHT22;58851;42.984;20.336;2022-07-29T14:41:07;1075.80;716.80
55331;DHT22;58851;42.984;20.336;2022-07-29T14:43:34;1049.80;768.00
55331;DHT22;58851;42.984;20.336;2022-07-29T14:46:00;999.10;793.60
55331;DHT22;58851;42.984;20.336;2022-07-29T14:48:26;999.10;793.60
55331;DHT22;58851;42.984;20.336;2022-07-29T14:50:52;1050.30;742.40
55331;DHT22;58851;42.984;20.336;2022-07-29T14:53:18;1100.80;742.40
55331;DHT22;58851;42.984;20.336;2022-07-29T14:55:44;1101.00;716.80
55331;DHT22;58851;42.984;20.336;2022-07-29T14:58:10;1101.10;691.20
55331;DHT22;58851;42.984;20.336;2022-07-29T15:00:36;1101.70;691.20
55331;DHT22;58851;42.984;20.336;2022-07-29T15:03:03;1152.10;665.60
55331;DHT22;58851;42.984;20.336;2022-07-29T15:05:32;1177.60;640.00
55331;DHT22;58851;42.984;20.336;2022-07-29T15:07:58;1152.70;614.40
55331;DHT22;58851;42.984;20.336;2022-07-29T15:10:25;1177.70;588.80
55331;DHT22;58851;42.984;20.336;2022-07-29T15:12:53;1203.20;588.80
55331;DHT22;58851;42.984;20.336;2022-07-29T15:15:19;1203.70;563.20
55331;DHT22;58851;42.984;20.336;2022-07-29T15:17:44;1228.90;563.20
55331;DHT22;58851;42.984;20.336;2022-07-29T15:20:11;1228.90;563.20
55331;DHT22;58851;42.984;20.336;2022-07-29T15:22:37;1229.30;563.20
55331;DHT22;58851;42.984;20.336;2022-07-29T15:25:04;1229.30;588.80